createdAt,value
2018-03-04T00:00:26.611Z,64.63
2018-03-04T00:02:56.806Z,67.63
2018-03-04T00:05:25.936Z,66.20
2018-03-04T00:07:55.363Z,64.90
2018-03-04T00:10:24.780Z,59.23
2018-03-04T00:12:54.206Z,63.97
2018-03-04T00:15:23.606Z,59.47
2018-03-04T00:17:53.024Z,69.53
2018-03-04T00:20:22.445Z,61.60
2018-03-04T00:22:51.851Z,63.30
2018-03-04T00:25:21.260Z,71.03
2018-03-04T00:27:50.661Z,59.80
2018-03-04T00:30:20.084Z,62.53
2018-03-04T00:32:49.504Z,62.87
2018-03-04T00:35:18.948Z,66.17
2018-03-04T00:37:49.127Z,67.30
2018-03-04T00:40:18.548Z,67.97
2018-03-04T00:42:47.955Z,58.83
2018-03-04T00:45:17.375Z,59.73
2018-03-04T00:47:46.779Z,61.50
2018-03-04T00:50:16.004Z,64.97
2018-03-04T00:52:45.421Z,62.20
2018-03-04T00:55:15.440Z,71.23
2018-03-04T00:57:44.844Z,61.67
2018-03-04T01:00:14.361Z,64.53
2018-03-04T01:02:43.751Z,70.33
2018-03-04T01:05:13.166Z,55.93
2018-03-04T01:07:42.596Z,62.33
2018-03-04T01:10:11.827Z,64.27
2018-03-04T01:12:41.036Z,59.97
2018-03-04T01:15:10.461Z,63.87
2018-03-04T01:17:39.872Z,59.07
2018-03-04T01:20:09.289Z,60.80
2018-03-04T01:22:38.708Z,60.93
2018-03-04T01:25:08.107Z,61.43
2018-03-04T01:27:37.520Z,70.87
2018-03-04T01:30:06.932Z,59.57
2018-03-04T01:32:36.356Z,63.33
2018-03-04T01:35:05.768Z,59.57
2018-03-04T01:37:35.163Z,57.70
2018-03-04T01:40:04.582Z,60.33
2018-03-04T01:42:33.787Z,59.67
2018-03-04T01:45:03.210Z,59.20
2018-03-04T01:47:32.612Z,67.33
2018-03-04T01:50:02.025Z,60.17
2018-03-04T01:52:31.432Z,59.60
2018-03-04T01:55:00.581Z,64.47
2018-03-04T01:57:29.986Z,62.37
2018-03-04T01:59:59.403Z,59.30
2018-03-04T02:02:28.820Z,60.67
2018-03-04T02:04:58.263Z,64.70
2018-03-04T02:07:27.668Z,63.97
2018-03-04T02:09:57.592Z,63.03
2018-03-04T02:12:26.992Z,57.07
2018-03-04T02:14:56.442Z,75.67
2018-03-04T02:17:25.849Z,68.23
2018-03-04T02:19:55.286Z,62.13
2018-03-04T02:22:25.476Z,60.07
2018-03-04T02:24:54.908Z,63.17
2018-03-04T02:27:24.373Z,63.30
2018-03-04T02:29:54.547Z,66.90
2018-03-04T02:32:23.972Z,63.20
2018-03-04T02:34:53.386Z,65.27
2018-03-04T02:37:22.822Z,63.03
2018-03-04T02:39:52.250Z,59.70
2018-03-04T02:42:22.440Z,57.87
2018-03-04T02:44:51.943Z,59.30
2018-03-04T02:47:21.315Z,63.90
2018-03-04T02:49:51.493Z,62.13
2018-03-04T02:52:20.703Z,61.27
2018-03-04T02:54:50.219Z,64.53
2018-03-04T02:57:19.592Z,55.10
2018-03-04T02:59:49.781Z,62.20
2018-03-04T03:02:19.675Z,59.40
2018-03-04T03:04:49.284Z,64.13
2018-03-04T03:07:18.776Z,62.00
2018-03-04T03:09:48.956Z,57.87
2018-03-04T03:12:18.384Z,61.50
2018-03-04T03:14:47.791Z,63.63
2018-03-04T03:17:17.207Z,64.43
2018-03-04T03:19:46.330Z,59.87
2018-03-04T03:22:15.746Z,64.07
2018-03-04T03:24:45.088Z,60.47
2018-03-04T03:27:14.489Z,62.87
2018-03-04T03:29:43.907Z,63.83
2018-03-04T03:32:13.313Z,66.73
2018-03-04T03:34:42.748Z,58.03
2018-03-04T03:37:12.163Z,62.20
2018-03-04T03:39:41.571Z,62.47
2018-03-04T03:42:11.049Z,61.10
2018-03-04T03:44:40.476Z,63.47
2018-03-04T03:47:09.873Z,66.40
2018-03-04T03:49:39.298Z,61.00
2018-03-04T03:52:08.709Z,63.80
2018-03-04T03:54:38.126Z,54.73
2018-03-04T03:57:07.535Z,58.47
2018-03-04T03:59:36.937Z,59.07
2018-03-04T04:02:06.556Z,58.60
2018-03-04T04:04:35.972Z,57.23
2018-03-04T04:07:05.379Z,59.83
2018-03-04T04:09:34.793Z,60.87
2018-03-04T04:12:04.974Z,60.07
2018-03-04T04:14:34.371Z,58.93
2018-03-04T04:17:03.503Z,62.40
2018-03-04T04:19:32.726Z,60.30
2018-03-04T04:22:02.356Z,61.37
2018-03-04T04:24:31.955Z,57.43
2018-03-04T04:27:01.368Z,58.30
2018-03-04T04:29:30.797Z,61.30
2018-03-04T04:32:01.688Z,55.97
2018-03-04T04:34:31.121Z,60.63
2018-03-04T04:37:00.533Z,56.20
2018-03-04T04:39:29.949Z,58.77
2018-03-04T04:41:59.369Z,58.20
2018-03-04T04:44:28.774Z,56.80
2018-03-04T04:46:58.178Z,60.83
2018-03-04T04:49:27.628Z,57.83
2018-03-04T04:51:57.230Z,59.03
2018-03-04T04:54:26.650Z,59.70
2018-03-04T04:56:56.178Z,55.70
2018-03-04T04:59:25.570Z,59.50
2018-03-04T05:01:54.815Z,64.07
2018-03-04T05:04:24.233Z,62.23
2018-03-04T05:06:53.640Z,55.27
2018-03-04T05:09:23.061Z,59.50
2018-03-04T05:11:52.482Z,57.40
2018-03-04T05:14:22.276Z,57.77
2018-03-04T05:16:51.680Z,54.43
2018-03-04T05:19:21.084Z,57.60
2018-03-04T05:21:51.555Z,52.00
2018-03-04T05:24:20.963Z,63.03
2018-03-04T05:26:50.383Z,57.13
2018-03-04T05:29:19.797Z,53.60
2018-03-04T05:31:49.204Z,66.37
2018-03-04T05:34:18.618Z,60.60
2018-03-04T05:36:47.757Z,59.70
2018-03-04T05:39:17.181Z,63.30
2018-03-04T05:41:46.588Z,55.07
2018-03-04T05:44:16.000Z,62.97
2018-03-04T05:46:47.043Z,55.73
2018-03-04T05:49:16.546Z,56.50
2018-03-04T05:51:46.122Z,60.37
2018-03-04T05:54:16.309Z,57.60
2018-03-04T05:56:45.741Z,56.67
2018-03-04T05:59:15.148Z,62.33
2018-03-04T06:01:44.581Z,59.00
2018-03-04T06:04:13.722Z,55.27
2018-03-04T06:06:43.382Z,53.33
2018-03-04T06:09:12.468Z,57.43
2018-03-04T06:11:41.883Z,61.97
2018-03-04T06:14:11.275Z,57.30
2018-03-04T06:16:40.734Z,51.93
2018-03-04T06:19:10.147Z,57.90
2018-03-04T06:21:39.566Z,57.50
2018-03-04T06:24:08.972Z,58.27
2018-03-04T06:26:38.388Z,56.30
2018-03-04T06:29:07.799Z,62.03
2018-03-04T06:31:37.238Z,55.73
2018-03-04T06:34:06.645Z,58.87
2018-03-04T06:36:36.067Z,67.90
2018-03-04T06:39:04.834Z,57.60
2018-03-04T06:41:34.228Z,55.97
2018-03-04T06:44:03.640Z,57.63
2018-03-04T06:46:33.816Z,56.80
2018-03-04T06:49:04.456Z,57.07
2018-03-04T06:51:33.861Z,60.13
2018-03-04T06:54:03.156Z,55.30
2018-03-04T06:56:32.567Z,60.00
2018-03-04T06:59:02.018Z,54.73
2018-03-04T07:01:31.417Z,57.10
2018-03-04T07:04:01.250Z,57.57
2018-03-04T07:06:30.736Z,53.47
2018-03-04T07:09:00.160Z,56.17
2018-03-04T07:11:29.583Z,59.07
2018-03-04T07:13:58.977Z,66.50
2018-03-04T07:16:28.638Z,55.37
2018-03-04T07:18:58.209Z,50.20
2018-03-04T07:21:28.384Z,55.07
2018-03-04T07:23:57.821Z,60.00
2018-03-04T07:26:27.721Z,55.83
2018-03-04T07:28:56.904Z,54.77
2018-03-04T07:31:27.080Z,58.23
2018-03-04T07:33:56.494Z,55.57
2018-03-04T07:36:25.922Z,53.50
2018-03-04T07:38:55.145Z,57.03
2018-03-04T07:41:25.330Z,54.00
2018-03-04T07:43:54.768Z,54.80
2018-03-04T07:46:24.384Z,51.17
2018-03-04T07:48:53.791Z,54.37
2018-03-04T07:51:23.210Z,53.43
2018-03-04T07:53:52.771Z,55.27
2018-03-04T07:56:22.240Z,60.03
2018-03-04T07:58:51.676Z,57.57
2018-03-04T08:01:21.081Z,56.10
2018-03-04T08:03:50.493Z,47.60
2018-03-04T08:06:19.705Z,57.00
2018-03-04T08:08:49.121Z,56.33
2018-03-04T08:11:18.543Z,56.87
2018-03-04T08:13:47.960Z,59.93
2018-03-04T08:16:17.386Z,56.67
2018-03-04T08:18:47.059Z,55.10
2018-03-04T08:21:16.472Z,53.93
2018-03-04T08:23:45.934Z,50.30
2018-03-04T08:26:27.008Z,55.00
2018-03-04T08:28:56.586Z,49.03
2018-03-04T08:31:26.777Z,46.17
2018-03-04T08:33:56.222Z,52.23
2018-03-04T08:36:25.612Z,49.03
2018-03-04T08:38:55.039Z,53.03
2018-03-04T08:41:24.150Z,53.73
2018-03-04T08:43:53.559Z,47.97
2018-03-04T08:46:23.426Z,48.93
2018-03-04T08:48:53.603Z,50.07
2018-03-04T08:51:23.079Z,50.70
2018-03-04T08:53:52.626Z,48.73
2018-03-04T08:56:22.008Z,47.50
2018-03-04T08:58:51.459Z,43.10
2018-03-04T09:01:20.884Z,48.37
2018-03-04T09:03:50.540Z,47.37
2018-03-04T09:06:20.581Z,44.50
2018-03-04T09:08:50.765Z,46.00
2018-03-04T09:11:20.181Z,52.40
2018-03-04T09:13:49.595Z,47.40
2018-03-04T09:16:19.097Z,44.27
2018-03-04T09:18:48.476Z,51.03
2018-03-04T09:21:17.928Z,50.43
2018-03-04T09:23:47.332Z,41.47
2018-03-04T09:26:16.752Z,44.23
2018-03-04T09:28:46.171Z,41.63
2018-03-04T09:31:15.582Z,43.20
2018-03-04T09:33:45.106Z,38.80
2018-03-04T09:36:14.501Z,39.83
2018-03-04T09:38:43.926Z,42.00
2018-03-04T09:41:13.379Z,36.23
2018-03-04T09:43:44.308Z,41.13
2018-03-04T09:46:13.724Z,37.23
2018-03-04T09:48:43.229Z,36.67
2018-03-04T09:51:12.607Z,34.57
2018-03-04T09:53:42.035Z,32.80
2018-03-04T09:56:11.436Z,32.13
2018-03-04T09:58:41.622Z,29.53
2018-03-04T10:01:11.045Z,29.30
2018-03-04T10:03:40.453Z,36.73
2018-03-04T10:06:09.852Z,35.77
2018-03-04T10:08:39.268Z,30.10
2018-03-04T10:11:08.692Z,32.00
2018-03-04T10:13:38.213Z,37.07
2018-03-04T10:16:07.591Z,35.30
2018-03-04T10:18:37.012Z,34.00
2018-03-04T10:21:06.420Z,33.00
2018-03-04T10:23:35.866Z,36.93
2018-03-04T10:26:05.276Z,34.33
2018-03-04T10:28:34.746Z,31.67
2018-03-04T10:31:04.212Z,36.63
2018-03-04T10:33:33.669Z,36.10
2018-03-04T10:36:03.093Z,33.00
2018-03-04T10:38:32.536Z,36.50
2018-03-04T10:41:01.997Z,35.27
2018-03-04T10:43:31.611Z,30.10
2018-03-04T10:46:01.058Z,35.43
2018-03-04T10:48:30.494Z,34.43
2018-03-04T10:51:00.704Z,28.50
2018-03-04T10:53:30.204Z,32.30
2018-03-04T10:55:59.829Z,31.90
2018-03-04T10:58:29.474Z,30.70
2018-03-04T11:01:05.113Z,29.67
2018-03-04T11:03:34.550Z,32.37
2018-03-04T11:06:04.222Z,28.47
2018-03-04T11:08:33.676Z,29.57
2018-03-04T11:11:03.878Z,29.97
2018-03-04T11:13:33.296Z,30.97
2018-03-04T11:16:02.756Z,29.80
2018-03-04T11:18:32.967Z,33.83
2018-03-04T11:21:02.409Z,30.47
2018-03-04T11:23:31.839Z,34.93
2018-03-04T11:26:01.281Z,30.27
2018-03-04T11:28:30.751Z,28.40
2018-03-04T11:31:00.341Z,28.73
2018-03-04T11:33:29.782Z,28.07
2018-03-04T11:35:59.254Z,33.60
2018-03-04T11:38:28.685Z,30.30
2018-03-04T11:40:58.114Z,32.40
2018-03-04T11:43:27.557Z,33.63
2018-03-04T11:45:57.777Z,34.50
2018-03-04T11:48:27.288Z,31.90
2018-03-04T11:50:56.799Z,28.60
2018-03-04T11:53:26.261Z,32.23
2018-03-04T11:55:55.729Z,32.50
2018-03-04T11:58:25.517Z,31.10
2018-03-04T12:00:54.962Z,28.73
2018-03-04T12:03:24.407Z,26.67
2018-03-04T12:05:54.706Z,30.87
2018-03-04T12:08:24.300Z,30.73
2018-03-04T12:10:53.811Z,32.33
2018-03-04T12:13:23.231Z,29.87
2018-03-04T12:15:52.712Z,28.63
2018-03-04T12:18:22.950Z,28.77
2018-03-04T12:20:53.176Z,34.37
2018-03-04T12:23:23.416Z,31.90
2018-03-04T12:25:53.700Z,28.73
2018-03-04T12:28:23.124Z,34.37
2018-03-04T12:30:52.547Z,32.30
2018-03-04T12:33:22.025Z,29.10
2018-03-04T12:35:51.446Z,29.40
2018-03-04T12:38:21.849Z,28.90
2018-03-04T12:40:52.026Z,29.90
2018-03-04T12:43:21.478Z,28.33
2018-03-04T12:45:52.417Z,33.10
2018-03-04T12:48:21.867Z,30.93
2018-03-04T12:50:52.045Z,31.20
2018-03-04T12:53:21.478Z,28.60
2018-03-04T12:55:50.908Z,30.87
2018-03-04T12:58:21.135Z,30.03
2018-03-04T13:00:50.651Z,31.03
2018-03-04T13:03:20.078Z,29.97
2018-03-04T13:05:50.318Z,26.80
2018-03-04T13:08:19.741Z,30.40
2018-03-04T13:10:49.946Z,25.10
2018-03-04T13:13:20.548Z,26.67
2018-03-04T13:15:49.676Z,27.40
2018-03-04T13:18:22.510Z,21.97
2018-03-04T13:20:52.141Z,25.13
2018-03-04T13:23:22.351Z,21.27
2018-03-04T13:25:51.787Z,22.90
2018-03-04T13:28:21.278Z,24.63
2018-03-04T13:30:50.698Z,25.20
2018-03-04T13:33:20.915Z,20.93
2018-03-04T13:35:50.345Z,22.07
2018-03-04T13:38:19.984Z,22.73
2018-03-04T13:40:49.709Z,26.33
2018-03-04T13:43:19.133Z,24.90
2018-03-04T13:45:48.563Z,26.03
2018-03-04T13:48:18.483Z,28.97
2018-03-04T13:50:47.911Z,25.03
2018-03-04T13:53:17.365Z,25.37
2018-03-04T13:55:46.800Z,24.00
2018-03-04T13:58:17.198Z,24.07
2018-03-04T14:00:46.622Z,22.60
2018-03-04T14:03:16.088Z,22.70
2018-03-04T14:05:45.521Z,21.67
2018-03-04T14:08:14.968Z,20.17
2018-03-04T14:10:45.169Z,22.63
2018-03-04T14:13:14.622Z,24.27
2018-03-04T14:15:44.060Z,22.80
2018-03-04T14:18:14.264Z,21.50
2018-03-04T14:20:43.717Z,20.33
2018-03-04T14:23:14.292Z,23.80
2018-03-04T14:25:43.754Z,20.43
2018-03-04T14:28:13.984Z,21.87
2018-03-04T14:30:44.178Z,24.90
2018-03-04T14:33:13.651Z,21.63
2018-03-04T14:35:43.923Z,25.27
2018-03-04T14:38:13.007Z,23.93
2018-03-04T14:40:42.425Z,24.23
2018-03-04T14:43:11.849Z,21.20
2018-03-04T14:45:41.280Z,24.37
2018-03-04T14:48:10.800Z,27.30
2018-03-04T14:50:40.409Z,24.37
2018-03-04T14:53:09.831Z,26.63
2018-03-04T14:55:39.303Z,24.43
2018-03-04T14:58:08.447Z,25.37
2018-03-04T15:00:37.981Z,26.67
2018-03-04T15:03:07.386Z,28.73
2018-03-04T15:05:36.808Z,26.73
2018-03-04T15:08:06.229Z,25.87
2018-03-04T15:10:35.649Z,26.53
2018-03-04T15:13:05.852Z,23.80
2018-03-04T15:15:35.302Z,23.60
2018-03-04T15:18:04.727Z,25.30
2018-03-04T15:20:34.133Z,28.67
2018-03-04T15:23:03.557Z,25.37
2018-03-04T15:25:32.984Z,24.13
2018-03-04T15:28:02.416Z,25.10
2018-03-04T15:30:32.609Z,26.63
2018-03-04T15:33:02.029Z,23.40
2018-03-04T15:35:31.460Z,26.33
2018-03-04T15:38:00.934Z,22.73
2018-03-04T15:40:30.373Z,23.73
2018-03-04T15:42:59.796Z,23.87
2018-03-04T15:45:29.263Z,27.90
2018-03-04T15:47:58.658Z,22.73
2018-03-04T15:50:28.874Z,24.10
2018-03-04T15:52:59.250Z,22.63
2018-03-04T15:55:29.937Z,24.53
2018-03-04T15:57:59.620Z,26.57
2018-03-04T16:00:29.654Z,24.33
2018-03-04T16:03:00.879Z,23.70
2018-03-04T16:05:31.135Z,24.77
2018-03-04T16:08:00.594Z,25.90
2018-03-04T16:10:30.032Z,20.73
2018-03-04T16:12:59.440Z,22.27
2018-03-04T16:15:28.928Z,25.57
2018-03-04T16:17:58.332Z,23.73
2018-03-04T16:20:27.791Z,22.37
2018-03-04T16:22:56.974Z,22.07
2018-03-04T16:25:26.386Z,21.80
2018-03-04T16:27:55.832Z,20.70
2018-03-04T16:30:25.304Z,21.47
2018-03-04T16:32:55.561Z,21.43
2018-03-04T16:35:25.062Z,20.63
2018-03-04T16:37:54.613Z,23.47
2018-03-04T16:40:24.052Z,20.23
2018-03-04T16:42:53.496Z,22.47
2018-03-04T16:45:23.756Z,22.77
2018-03-04T16:47:53.218Z,19.97
2018-03-04T16:50:22.887Z,17.93
2018-03-04T16:52:52.319Z,21.23
2018-03-04T16:55:21.752Z,20.70
2018-03-04T16:57:51.173Z,17.83
2018-03-04T17:00:22.148Z,23.47
2018-03-04T17:02:52.364Z,18.50
2018-03-04T17:05:21.840Z,21.03
2018-03-04T17:07:51.744Z,19.83
2018-03-04T17:10:21.144Z,18.50
2018-03-04T17:12:51.003Z,20.13
2018-03-04T17:15:21.686Z,20.00
2018-03-04T17:17:52.607Z,17.57
2018-03-04T17:20:23.575Z,16.53
2018-03-04T17:22:53.431Z,18.00
2018-03-04T17:25:23.140Z,20.60
2018-03-04T17:27:52.704Z,17.07
2018-03-04T17:30:22.280Z,18.43
2018-03-04T17:32:52.521Z,18.73
2018-03-04T17:35:21.940Z,17.30
2018-03-04T17:37:51.371Z,16.00
2018-03-04T17:40:20.823Z,19.70
2018-03-04T17:42:50.240Z,15.90
2018-03-04T17:45:19.681Z,15.67
2018-03-04T17:47:49.281Z,16.97
2018-03-04T17:50:18.719Z,16.93
2018-03-04T17:52:48.137Z,15.67
2018-03-04T17:55:17.715Z,15.63
2018-03-04T17:57:47.907Z,13.77
2018-03-04T18:00:18.080Z,16.80
2018-03-04T18:02:48.277Z,17.53
2018-03-04T18:05:17.700Z,18.40
2018-03-04T18:07:47.129Z,18.00
2018-03-04T18:10:16.542Z,21.40
2018-03-04T18:12:45.961Z,16.00
2018-03-04T18:15:16.143Z,18.93
2018-03-04T18:17:45.569Z,18.30
2018-03-04T18:20:16.547Z,17.90
2018-03-04T18:22:45.978Z,18.80
2018-03-04T18:25:16.208Z,15.93
2018-03-04T18:27:46.412Z,18.03
2018-03-04T18:30:15.844Z,16.60
2018-03-04T18:32:45.268Z,15.77
2018-03-04T18:35:16.211Z,16.93
2018-03-04T18:37:47.104Z,16.43
2018-03-04T18:40:19.462Z,17.10
2018-03-04T18:42:50.302Z,13.90
2018-03-04T18:45:20.323Z,15.97
2018-03-04T18:47:49.909Z,17.40
2018-03-04T18:50:19.334Z,16.93
2018-03-04T18:52:48.754Z,16.40
2018-03-04T18:55:18.198Z,16.07
2018-03-04T18:57:49.191Z,12.80
2018-03-04T19:00:18.629Z,15.47
2018-03-04T19:02:48.044Z,15.67
2018-03-04T19:05:17.465Z,15.17
2018-03-04T19:07:46.905Z,13.93
2018-03-04T19:10:16.321Z,14.13
2018-03-04T19:12:45.737Z,14.17
2018-03-04T19:15:15.921Z,13.63
2018-03-04T19:17:45.370Z,13.70
2018-03-04T19:20:14.792Z,13.47
2018-03-04T19:22:44.403Z,15.10
2018-03-04T19:25:13.729Z,13.80
2018-03-04T19:27:43.184Z,14.67
2018-03-04T19:30:12.599Z,15.40
2018-03-04T19:32:42.803Z,13.80
2018-03-04T19:35:12.217Z,15.13
2018-03-04T19:37:41.443Z,21.03
2018-03-04T19:40:11.616Z,20.80
2018-03-04T19:42:40.713Z,21.03
2018-03-04T19:45:10.212Z,19.90
2018-03-04T19:47:40.487Z,21.23
2018-03-04T19:50:09.939Z,23.27
2018-03-04T19:52:39.605Z,21.53
2018-03-04T19:55:09.285Z,21.90
2018-03-04T19:57:38.722Z,19.23
2018-03-04T20:00:08.991Z,22.57
2018-03-04T20:02:38.440Z,29.17
2018-03-04T20:05:07.932Z,27.43
2018-03-04T20:07:37.316Z,26.93
2018-03-04T20:10:06.740Z,22.87
2018-03-04T20:12:36.158Z,23.00
2018-03-04T20:15:05.570Z,28.90
2018-03-04T20:17:34.991Z,23.80
2018-03-04T20:20:03.776Z,27.20
2018-03-04T20:22:32.913Z,26.03
2018-03-04T20:25:02.369Z,25.43
2018-03-04T20:27:31.818Z,21.97
2018-03-04T20:30:01.225Z,23.10
2018-03-04T20:32:31.668Z,26.90
2018-03-04T20:35:01.085Z,25.90
2018-03-04T20:37:30.732Z,24.97
2018-03-04T20:40:00.147Z,28.27
2018-03-04T20:42:29.604Z,26.13
2018-03-04T20:44:59.025Z,24.37
2018-03-04T20:47:29.963Z,29.97
2018-03-04T20:50:00.944Z,27.13
2018-03-04T20:52:31.214Z,27.87
2018-03-04T20:55:00.650Z,26.83
2018-03-04T20:57:30.068Z,26.90
2018-03-04T20:59:59.541Z,31.37
2018-03-04T21:02:28.951Z,28.40
2018-03-04T21:04:58.382Z,29.80
2018-03-04T21:07:27.806Z,30.50
2018-03-04T21:09:57.242Z,33.00
2018-03-04T21:12:26.700Z,32.27
2018-03-04T21:14:56.073Z,32.83
2018-03-04T21:17:25.498Z,33.83
2018-03-04T21:19:54.909Z,36.80
2018-03-04T21:22:25.861Z,37.23
2018-03-04T21:24:55.281Z,35.87
2018-03-04T21:27:24.753Z,28.87
2018-03-04T21:29:54.192Z,32.30
2018-03-04T21:32:23.629Z,35.20
2018-03-04T21:34:53.569Z,35.97
2018-03-04T21:37:23.014Z,34.57
2018-03-04T21:39:52.445Z,34.90
2018-03-04T21:42:21.859Z,33.47
2018-03-04T21:44:50.652Z,31.10
2018-03-04T21:47:20.084Z,33.97
2018-03-04T21:49:49.485Z,31.70
2018-03-04T21:52:18.912Z,31.87
2018-03-04T21:54:48.332Z,29.93
2018-03-04T21:57:17.763Z,26.00
2018-03-04T21:59:47.205Z,27.90
2018-03-04T22:02:16.627Z,27.57
2018-03-04T22:04:46.019Z,21.23
2018-03-04T22:07:15.449Z,21.80
2018-03-04T22:09:44.596Z,18.30
2018-03-04T22:12:14.022Z,17.90
2018-03-04T22:14:43.470Z,18.60
2018-03-04T22:17:12.889Z,13.07
2018-03-04T22:19:42.307Z,14.73
2018-03-04T22:22:11.717Z,13.93
2018-03-04T22:24:41.106Z,9.07
2018-03-04T22:27:11.294Z,7.40
2018-03-04T22:29:40.889Z,8.90
2018-03-04T22:32:11.074Z,7.00
2018-03-04T22:34:40.488Z,6.17
2018-03-04T22:37:09.866Z,6.90
2018-03-04T22:39:39.256Z,5.63
2018-03-04T22:42:08.656Z,6.07
2018-03-04T22:44:38.065Z,5.87
2018-03-04T22:47:07.960Z,6.57
2018-03-04T22:49:37.085Z,5.93
2018-03-04T22:52:06.480Z,5.37
2018-03-04T22:54:35.887Z,5.47
2018-03-04T22:57:04.980Z,5.03
2018-03-04T22:59:34.095Z,5.67
2018-03-04T23:02:03.291Z,5.50
2018-03-04T23:04:32.427Z,5.70
2018-03-04T23:07:01.573Z,6.23
2018-03-04T23:09:31.463Z,5.77
2018-03-04T23:12:00.567Z,5.60
2018-03-04T23:14:29.714Z,5.87
2018-03-04T23:16:59.615Z,5.47
2018-03-04T23:19:29.028Z,5.73
2018-03-04T23:21:58.031Z,5.90
2018-03-04T23:24:28.607Z,5.57
2018-03-04T23:27:00.246Z,5.67
2018-03-04T23:29:29.801Z,5.83
2018-03-04T23:31:58.955Z,5.90
2018-03-04T23:34:28.082Z,5.33
2018-03-04T23:36:57.215Z,5.93
2018-03-04T23:39:27.543Z,5.43
2018-03-04T23:41:56.677Z,5.77
2018-03-04T23:44:25.813Z,6.37
2018-03-04T23:46:55.980Z,6.53
2018-03-04T23:49:25.093Z,6.73
2018-03-04T23:51:54.550Z,7.07
2018-03-04T23:54:23.676Z,8.47
2018-03-04T23:56:53.907Z,6.73
2018-03-04T23:59:24.072Z,7.37
